sensor_id;sensor_type;location;lat;lon;timestamp;pressure;altitude;pressure_sealevel;temperature;humidity
77537;BME280;67783;51.656;16.106;2023-03-19T00:00:06;101645.16;;;9.35;51.45
77537;BME280;67783;51.656;16.106;2023-03-19T00:03:26;101640.11;;;9.28;52.80
77537;BME280;67783;51.656;16.106;2023-03-19T00:06:28;101645.47;;;9.28;50.91
77537;BME280;67783;51.656;16.106;2023-03-19T00:09:30;101650.04;;;9.26;51.52
77537;BME280;67783;51.656;16.106;2023-03-19T00:12:32;101643.13;;;9.22;50.89
77537;BME280;67783;51.656;16.106;2023-03-19T00:15:33;101640.13;;;9.11;51.67
77537;BME280;67783;51.656;16.106;2023-03-19T00:18:36;101639.41;;;9.08;51.01
77537;BME280;67783;51.656;16.106;2023-03-19T00:21:37;101637.62;;;9.08;51.22
77537;BME280;67783;51.656;16.106;2023-03-19T00:24:42;101642.09;;;9.08;53.03
77537;BME280;67783;51.656;16.106;2023-03-19T00:27:44;101634.94;;;9.08;51.24
77537;BME280;67783;51.656;16.106;2023-03-19T00:30:46;101634.17;;;9.06;52.14
77537;BME280;67783;51.656;16.106;2023-03-19T00:33:49;101636.12;;;9.03;51.36
77537;BME280;67783;51.656;16.106;2023-03-19T00:36:51;101631.03;;;8.98;51.83
77537;BME280;67783;51.656;16.106;2023-03-19T00:39:52;101636.51;;;8.95;51.54
77537;BME280;67783;51.656;16.106;2023-03-19T00:42:54;101631.48;;;8.89;51.94
77537;BME280;67783;51.656;16.106;2023-03-19T00:45:59;101628.98;;;8.86;54.03
77537;BME280;67783;51.656;16.106;2023-03-19T00:49:01;101624.57;;;8.85;52.07
77537;BME280;67783;51.656;16.106;2023-03-19T00:52:02;101623.64;;;8.86;52.92
77537;BME280;67783;51.656;16.106;2023-03-19T00:55:05;101632.27;;;8.91;51.99
77537;BME280;67783;51.656;16.106;2023-03-19T00:58:07;101624.94;;;8.95;52.42
77537;BME280;67783;51.656;16.106;2023-03-19T01:01:19;101615.98;;;8.96;54.56
77537;BME280;67783;51.656;16.106;2023-03-19T01:04:21;101619.36;;;8.99;52.14
77537;BME280;67783;51.656;16.106;2023-03-19T01:07:23;101611.27;;;9.01;52.95
77537;BME280;67783;51.656;16.106;2023-03-19T01:10:25;101606.79;;;9.01;52.17
77537;BME280;67783;51.656;16.106;2023-03-19T01:13:27;101605.23;;;8.97;52.61
77537;BME280;67783;51.656;16.106;2023-03-19T01:16:29;101609.63;;;8.98;52.17
77537;BME280;67783;51.656;16.106;2023-03-19T01:19:30;101621.09;;;9.00;52.49
77537;BME280;67783;51.656;16.106;2023-03-19T01:22:36;101619.30;;;9.01;54.91
77537;BME280;67783;51.656;16.106;2023-03-19T01:25:38;101615.52;;;9.05;52.52
77537;BME280;67783;51.656;16.106;2023-03-19T01:28:40;101613.88;;;9.02;53.54
77537;BME280;67783;51.656;16.106;2023-03-19T01:31:44;101611.03;;;9.05;52.55
77537;BME280;67783;51.656;16.106;2023-03-19T01:34:45;101613.77;;;9.04;52.91
77537;BME280;67783;51.656;16.106;2023-03-19T01:37:56;101608.52;;;9.02;54.93
77537;BME280;67783;51.656;16.106;2023-03-19T01:40:58;101609.30;;;9.04;52.67
77537;BME280;67783;51.656;16.106;2023-03-19T01:44:00;101608.52;;;9.02;53.55
77537;BME280;67783;51.656;16.106;2023-03-19T01:47:05;101609.47;;;9.01;52.67
77537;BME280;67783;51.656;16.106;2023-03-19T01:53:28;101617.79;;;8.95;54.04
77537;BME280;67783;51.656;16.106;2023-03-19T01:56:34;101613.41;;;8.94;52.88
77537;BME280;67783;51.656;16.106;2023-03-19T01:59:44;101617.19;;;8.90;53.19
77537;BME280;67783;51.656;16.106;2023-03-19T02:02:50;101622.67;;;8.87;54.91
77537;BME280;67783;51.656;16.106;2023-03-19T02:05:54;101627.14;;;8.87;53.15
77537;BME280;67783;51.656;16.106;2023-03-19T02:08:58;101616.62;;;8.84;53.58
77537;BME280;67783;51.656;16.106;2023-03-19T02:12:00;101621.90;;;8.85;53.10
77537;BME280;67783;51.656;16.106;2023-03-19T02:15:03;101631.09;;;8.79;53.43
77537;BME280;67783;51.656;16.106;2023-03-19T02:18:07;101635.79;;;8.74;55.78
77537;BME280;67783;51.656;16.106;2023-03-19T02:21:12;101626.13;;;8.72;53.57
77537;BME280;67783;51.656;16.106;2023-03-19T02:24:20;101628.48;;;8.61;54.27
77537;BME280;67783;51.656;16.106;2023-03-19T02:27:34;101627.52;;;8.45;56.72
77537;BME280;67783;51.656;16.106;2023-03-19T02:30:36;101615.60;;;8.33;54.42
77537;BME280;67783;51.656;16.106;2023-03-19T02:33:39;101623.46;;;8.17;55.85
77537;BME280;67783;51.656;16.106;2023-03-19T02:36:44;101631.04;;;8.08;54.84
77537;BME280;67783;51.656;16.106;2023-03-19T02:43:00;101634.30;;;7.77;57.70
77537;BME280;67783;51.656;16.106;2023-03-19T02:46:02;101634.58;;;7.71;55.57
77537;BME280;67783;51.656;16.106;2023-03-19T02:49:05;101650.17;;;7.61;56.44
77537;BME280;67783;51.656;16.106;2023-03-19T02:52:07;101659.05;;;7.62;55.48
77537;BME280;67783;51.656;16.106;2023-03-19T02:55:09;101654.42;;;7.65;55.87
77537;BME280;67783;51.656;16.106;2023-03-19T02:58:15;101652.63;;;7.66;58.13
77537;BME280;67783;51.656;16.106;2023-03-19T03:01:17;101644.32;;;7.72;55.54
77537;BME280;67783;51.656;16.106;2023-03-19T03:04:19;101639.91;;;7.71;56.64
77537;BME280;67783;51.656;16.106;2023-03-19T03:07:20;101637.96;;;7.74;55.51
77537;BME280;67783;51.656;16.106;2023-03-19T03:10:23;101635.39;;;7.73;56.13
77537;BME280;67783;51.656;16.106;2023-03-19T03:13:24;101635.53;;;7.70;55.64
77537;BME280;67783;51.656;16.106;2023-03-19T03:16:27;101633.19;;;7.62;56.19
77537;BME280;67783;51.656;16.106;2023-03-19T03:19:32;101639.61;;;7.58;58.73
77537;BME280;67783;51.656;16.106;2023-03-19T03:22:34;101630.47;;;7.64;55.96
77537;BME280;67783;51.656;16.106;2023-03-19T03:25:36;101630.47;;;7.64;57.09
77537;BME280;67783;51.656;16.106;2023-03-19T03:28:38;101624.26;;;7.63;56.00
77537;BME280;67783;51.656;16.106;2023-03-19T03:31:41;101630.68;;;7.59;56.73
77537;BME280;67783;51.656;16.106;2023-03-19T03:34:53;101629.89;;;7.57;58.96
77537;BME280;67783;51.656;16.106;2023-03-19T03:37:55;101639.55;;;7.60;56.37
77537;BME280;67783;51.656;16.106;2023-03-19T03:40:58;101637.96;;;7.56;57.66
77537;BME280;67783;51.656;16.106;2023-03-19T03:44:00;101636.22;;;7.55;56.40
77537;BME280;67783;51.656;16.106;2023-03-19T03:47:02;101632.47;;;7.59;56.85
77537;BME280;67783;51.656;16.106;2023-03-19T03:50:14;101642.21;;;7.60;59.35
77537;BME280;67783;51.656;16.106;2023-03-19T03:53:15;101645.81;;;7.59;56.60
77537;BME280;67783;51.656;16.106;2023-03-19T03:56:17;101649.29;;;7.61;57.50
77537;BME280;67783;51.656;16.106;2023-03-19T03:59:19;101651.67;;;7.67;56.46
77537;BME280;67783;51.656;16.106;2023-03-19T04:02:21;101652.47;;;7.69;56.94
77537;BME280;67783;51.656;16.106;2023-03-19T04:05:23;101650.67;;;7.69;56.53
77537;BME280;67783;51.656;16.106;2023-03-19T04:08:26;101658.22;;;7.60;57.05
77537;BME280;67783;51.656;16.106;2023-03-19T04:11:31;101640.88;;;7.50;59.77
77537;BME280;67783;51.656;16.106;2023-03-19T04:14:32;101638.37;;;7.47;57.23
77537;BME280;67783;51.656;16.106;2023-03-19T04:17:34;101642.98;;;7.43;58.20
77537;BME280;67783;51.656;16.106;2023-03-19T04:20:36;101637.49;;;7.46;57.09
77537;BME280;67783;51.656;16.106;2023-03-19T04:23:37;101645.49;;;7.46;57.74
77537;BME280;67783;51.656;16.106;2023-03-19T04:26:39;101641.03;;;7.47;57.14
77537;BME280;67783;51.656;16.106;2023-03-19T04:29:41;101612.65;;;7.25;57.60
77537;BME280;67783;51.656;16.106;2023-03-19T04:32:46;101648.45;;;7.40;60.36
77537;BME280;67783;51.656;16.106;2023-03-19T04:35:48;101650.41;;;7.36;57.75
77537;BME280;67783;51.656;16.106;2023-03-19T04:38:49;101650.71;;;7.29;59.09
77537;BME280;67783;51.656;16.106;2023-03-19T04:41:52;101646.45;;;7.25;57.85
77537;BME280;67783;51.656;16.106;2023-03-19T04:44:54;101647.52;;;7.21;58.19
77537;BME280;67783;51.656;16.106;2023-03-19T04:47:55;101643.93;;;7.22;57.61
77537;BME280;67783;51.656;16.106;2023-03-19T04:50:58;101647.47;;;7.22;58.09
77537;BME280;67783;51.656;16.106;2023-03-19T04:54:03;101651.05;;;7.21;60.42
77537;BME280;67783;51.656;16.106;2023-03-19T04:57:05;101650.13;;;7.22;57.94
77537;BME280;67783;51.656;16.106;2023-03-19T05:00:08;101654.67;;;7.20;58.68
77537;BME280;67783;51.656;16.106;2023-03-19T05:03:11;101651.73;;;7.26;57.61
77537;BME280;67783;51.656;16.106;2023-03-19T05:06:13;101651.73;;;7.26;58.19
77537;BME280;67783;51.656;16.106;2023-03-19T05:09:23;101643.87;;;7.23;60.29
77537;BME280;67783;51.656;16.106;2023-03-19T05:12:25;101646.39;;;7.26;57.83
77537;BME280;67783;51.656;16.106;2023-03-19T05:15:27;101653.47;;;7.27;58.87
77537;BME280;67783;51.656;16.106;2023-03-19T05:18:29;101649.79;;;7.30;57.85
77537;BME280;67783;51.656;16.106;2023-03-19T05:21:30;101646.14;;;7.32;58.17
77537;BME280;67783;51.656;16.106;2023-03-19T05:24:32;101653.85;;;7.38;57.65
77537;BME280;67783;51.656;16.106;2023-03-19T05:27:34;101652.63;;;7.46;57.84
77537;BME280;67783;51.656;16.106;2023-03-19T05:30:39;101653.24;;;7.52;59.92
77537;BME280;67783;51.656;16.106;2023-03-19T05:33:42;101648.63;;;7.56;57.91
77537;BME280;67783;51.656;16.106;2023-03-19T05:36:43;101646.16;;;7.51;58.61
77537;BME280;67783;51.656;16.106;2023-03-19T05:39:46;101657.70;;;7.52;57.79
77537;BME280;67783;51.656;16.106;2023-03-19T05:42:48;101655.96;;;7.51;58.14
77537;BME280;67783;51.656;16.106;2023-03-19T05:45:59;101664.70;;;7.54;59.90
77537;BME280;67783;51.656;16.106;2023-03-19T05:49:02;101675.05;;;7.62;57.75
77537;BME280;67783;51.656;16.106;2023-03-19T05:52:04;101673.02;;;7.67;58.40
77537;BME280;67783;51.656;16.106;2023-03-19T05:55:06;101672.55;;;7.77;57.55
77537;BME280;67783;51.656;16.106;2023-03-19T05:58:08;101679.53;;;7.80;57.98
77537;BME280;67783;51.656;16.106;2023-03-19T06:01:20;101676.14;;;7.76;59.70
77537;BME280;67783;51.656;16.106;2023-03-19T06:04:22;101684.09;;;7.78;57.69
77537;BME280;67783;51.656;16.106;2023-03-19T06:07:24;101683.13;;;7.79;58.54
77537;BME280;67783;51.656;16.106;2023-03-19T06:10:25;101688.20;;;7.85;57.62
77537;BME280;67783;51.656;16.106;2023-03-19T06:13:27;101686.26;;;7.88;57.91
77537;BME280;67783;51.656;16.106;2023-03-19T06:16:29;101684.03;;;7.98;57.42
77537;BME280;67783;51.656;16.106;2023-03-19T06:19:31;101688.86;;;8.09;57.58
77537;BME280;67783;51.656;16.106;2023-03-19T06:22:36;101688.22;;;8.22;58.76
77537;BME280;67783;51.656;16.106;2023-03-19T06:25:37;101687.52;;;8.38;57.23
77537;BME280;67783;51.656;16.106;2023-03-19T06:28:39;101697.20;;;8.40;58.10
77537;BME280;67783;51.656;16.106;2023-03-19T06:31:40;101693.35;;;8.46;57.24
77537;BME280;67783;51.656;16.106;2023-03-19T06:34:42;101696.03;;;8.46;57.56
77537;BME280;67783;51.656;16.106;2023-03-19T06:37:44;101693.95;;;8.52;57.13
77537;BME280;67783;51.656;16.106;2023-03-19T06:40:47;101699.99;;;8.56;57.26
77537;BME280;67783;51.656;16.106;2023-03-19T06:43:52;101694.56;;;8.57;58.54
77537;BME280;67783;51.656;16.106;2023-03-19T06:46:54;101690.73;;;8.63;57.33
77537;BME280;67783;51.656;16.106;2023-03-19T06:49:56;101693.41;;;8.63;58.12
77537;BME280;67783;51.656;16.106;2023-03-19T06:52:57;101693.84;;;8.72;57.25
77537;BME280;67783;51.656;16.106;2023-03-19T06:55:59;101690.22;;;8.73;57.27
77537;BME280;67783;51.656;16.106;2023-03-19T06:59:01;101684.88;;;8.73;57.11
77537;BME280;67783;51.656;16.106;2023-03-19T07:02:02;101687.61;;;8.72;57.29
77537;BME280;67783;51.656;16.106;2023-03-19T07:05:08;101689.48;;;8.70;58.28
77537;BME280;67783;51.656;16.106;2023-03-19T07:08:10;101692.63;;;8.78;56.92
77537;BME280;67783;51.656;16.106;2023-03-19T07:11:13;101701.79;;;8.91;57.12
77537;BME280;67783;51.656;16.106;2023-03-19T07:14:15;101707.16;;;9.08;56.51
77537;BME280;67783;51.656;16.106;2023-03-19T07:17:17;101691.69;;;9.15;56.49
77537;BME280;67783;51.656;16.106;2023-03-19T07:20:28;101688.73;;;9.19;56.94
77537;BME280;67783;51.656;16.106;2023-03-19T07:23:30;101696.47;;;9.25;56.36
77537;BME280;67783;51.656;16.106;2023-03-19T07:26:31;101692.76;;;9.28;56.57
77537;BME280;67783;51.656;16.106;2023-03-19T07:29:33;101697.11;;;9.31;56.17
77537;BME280;67783;51.656;16.106;2023-03-19T07:32:35;101693.39;;;9.33;56.01
77537;BME280;67783;51.656;16.106;2023-03-19T07:35:49;101696.30;;;9.46;55.74
77537;BME280;67783;51.656;16.106;2023-03-19T07:38:51;101696.69;;;9.55;55.49
77537;BME280;67783;51.656;16.106;2023-03-19T07:41:53;101691.09;;;9.60;55.32
77537;BME280;67783;51.656;16.106;2023-03-19T07:44:55;101693.43;;;9.66;55.29
77537;BME280;67783;51.656;16.106;2023-03-19T07:47:57;101697.60;;;9.71;55.24
77537;BME280;67783;51.656;16.106;2023-03-19T07:51:09;101695.20;;;9.83;54.91
77537;BME280;67783;51.656;16.106;2023-03-19T07:54:12;101686.36;;;9.98;54.80
77537;BME280;67783;51.656;16.106;2023-03-19T07:57:13;101699.08;;;10.10;54.76
77537;BME280;67783;51.656;16.106;2023-03-19T08:00:17;101693.76;;;10.26;54.55
77537;BME280;67783;51.656;16.106;2023-03-19T08:03:19;101699.38;;;10.37;54.45
77537;BME280;67783;51.656;16.106;2023-03-19T08:06:30;101696.26;;;10.44;54.46
77537;BME280;67783;51.656;16.106;2023-03-19T08:09:33;101713.46;;;10.56;54.27
77537;BME280;67783;51.656;16.106;2023-03-19T08:12:35;101712.19;;;10.63;53.96
77537;BME280;67783;51.656;16.106;2023-03-19T08:15:41;101704.64;;;10.70;53.88
77537;BME280;67783;51.656;16.106;2023-03-19T08:18:42;101700.32;;;10.67;53.68
77537;BME280;67783;51.656;16.106;2023-03-19T08:21:51;101704.83;;;10.67;53.79
77537;BME280;67783;51.656;16.106;2023-03-19T08:24:52;101712.61;;;10.71;53.79
77537;BME280;67783;51.656;16.106;2023-03-19T08:27:54;101708.38;;;10.67;53.81
77537;BME280;67783;51.656;16.106;2023-03-19T08:30:56;101707.86;;;10.76;53.73
77537;BME280;67783;51.656;16.106;2023-03-19T08:33:58;101710.95;;;10.84;53.45
77537;BME280;67783;51.656;16.106;2023-03-19T08:37:12;101717.31;;;10.97;52.71
77537;BME280;67783;51.656;16.106;2023-03-19T08:40:13;101720.66;;;11.17;53.12
77537;BME280;67783;51.656;16.106;2023-03-19T08:43:16;101719.94;;;11.29;52.64
77537;BME280;67783;51.656;16.106;2023-03-19T08:46:18;101720.55;;;11.48;52.53
77537;BME280;67783;51.656;16.106;2023-03-19T08:49:19;101714.35;;;11.62;51.99
77537;BME280;67783;51.656;16.106;2023-03-19T08:52:33;101708.84;;;11.79;50.96
77537;BME280;67783;51.656;16.106;2023-03-19T08:55:34;101716.53;;;11.99;51.96
77537;BME280;67783;51.656;16.106;2023-03-19T08:58:36;101714.51;;;12.17;51.54
77537;BME280;67783;51.656;16.106;2023-03-19T09:01:38;101696.45;;;12.19;51.56
77537;BME280;67783;51.656;16.106;2023-03-19T09:04:41;101724.16;;;12.47;50.87
77537;BME280;67783;51.656;16.106;2023-03-19T09:07:53;101720.29;;;12.66;49.44
77537;BME280;67783;51.656;16.106;2023-03-19T09:10:54;101725.60;;;12.80;50.58
77537;BME280;67783;51.656;16.106;2023-03-19T09:13:56;101725.66;;;12.92;49.61
77537;BME280;67783;51.656;16.106;2023-03-19T09:16:58;101731.59;;;13.12;50.04
77537;BME280;67783;51.656;16.106;2023-03-19T09:19:59;101733.46;;;13.24;49.66
77537;BME280;67783;51.656;16.106;2023-03-19T09:23:01;101724.11;;;13.42;49.79
77537;BME280;67783;51.656;16.106;2023-03-19T09:26:03;101734.81;;;13.56;49.28
77537;BME280;67783;51.656;16.106;2023-03-19T09:29:08;101737.44;;;13.70;47.12
77537;BME280;67783;51.656;16.106;2023-03-19T09:32:09;101730.87;;;13.87;48.80
77537;BME280;67783;51.656;16.106;2023-03-19T09:35:11;101725.43;;;14.00;47.67
77537;BME280;67783;51.656;16.106;2023-03-19T09:38:13;101719.94;;;14.14;48.20
77537;BME280;67783;51.656;16.106;2023-03-19T09:44:36;101706.44;;;14.26;45.34
77537;BME280;67783;51.656;16.106;2023-03-19T09:47:39;101712.58;;;14.41;47.63
77537;BME280;67783;51.656;16.106;2023-03-19T09:50:45;101714.41;;;14.53;47.05
77537;BME280;67783;51.656;16.106;2023-03-19T09:53:59;101699.77;;;14.68;44.18
77537;BME280;67783;51.656;16.106;2023-03-19T09:57:02;101692.26;;;14.85;45.71
77537;BME280;67783;51.656;16.106;2023-03-19T10:06:38;101713.19;;;15.29;45.28
77537;BME280;67783;51.656;16.106;2023-03-19T10:09:57;101707.70;;;15.41;44.59
77537;BME280;67783;51.656;16.106;2023-03-19T10:16:17;101708.79;;;15.74;44.36
77537;BME280;67783;51.656;16.106;2023-03-19T10:19:35;101698.01;;;15.85;43.94
77537;BME280;67783;51.656;16.106;2023-03-19T10:25:58;101684.73;;;16.15;39.70
77537;BME280;67783;51.656;16.106;2023-03-19T10:38:41;101686.27;;;16.73;42.76
77537;BME280;67783;51.656;16.106;2023-03-19T10:48:24;101678.20;;;16.94;38.77
77537;BME280;67783;51.656;16.106;2023-03-19T10:51:27;101676.92;;;17.09;42.21
77537;BME280;67783;51.656;16.106;2023-03-19T10:54:29;101675.02;;;17.21;41.07
77537;BME280;67783;51.656;16.106;2023-03-19T10:57:32;101680.38;;;17.32;41.83
77537;BME280;67783;51.656;16.106;2023-03-19T11:00:33;101675.02;;;17.41;41.32
77537;BME280;67783;51.656;16.106;2023-03-19T11:03:50;101677.47;;;17.44;38.53
77537;BME280;67783;51.656;16.106;2023-03-19T11:06:54;101679.98;;;17.36;40.08
77537;BME280;67783;51.656;16.106;2023-03-19T11:09:56;101692.07;;;17.32;40.64
77537;BME280;67783;51.656;16.106;2023-03-19T11:13:04;101680.73;;;17.38;41.21
77537;BME280;67783;51.656;16.106;2023-03-19T11:16:07;101683.87;;;17.43;40.78
77537;BME280;67783;51.656;16.106;2023-03-19T11:19:18;101685.60;;;17.44;36.89
77537;BME280;67783;51.656;16.106;2023-03-19T11:25:40;101674.76;;;17.44;40.06
77537;BME280;67783;51.656;16.106;2023-03-19T11:28:43;101666.89;;;17.41;37.81
77537;BME280;67783;51.656;16.106;2023-03-19T11:35:00;101660.10;;;17.47;39.82
77537;BME280;67783;51.656;16.106;2023-03-19T11:38:14;101651.81;;;17.48;37.43
77537;BME280;67783;51.656;16.106;2023-03-19T11:47:52;101657.58;;;17.34;38.28
77537;BME280;67783;51.656;16.106;2023-03-19T11:50:59;101660.42;;;17.33;39.67
77537;BME280;67783;51.656;16.106;2023-03-19T12:00:47;101659.19;;;17.58;37.71
77537;BME280;67783;51.656;16.106;2023-03-19T12:10:28;101649.65;;;17.42;38.91
77537;BME280;67783;51.656;16.106;2023-03-19T12:20:16;101639.32;;;17.36;39.51
77537;BME280;67783;51.656;16.106;2023-03-19T12:36:29;101635.90;;;17.34;38.90
77537;BME280;67783;51.656;16.106;2023-03-19T12:39:35;101634.37;;;17.41;39.47
77537;BME280;67783;51.656;16.106;2023-03-19T12:42:39;101630.87;;;17.50;39.22
77537;BME280;67783;51.656;16.106;2023-03-19T12:45:47;101632.83;;;17.48;36.62
77537;BME280;67783;51.656;16.106;2023-03-19T12:49:04;101634.84;;;17.46;38.82
77537;BME280;67783;51.656;16.106;2023-03-19T12:55:41;101632.17;;;17.35;37.91
77537;BME280;67783;51.656;16.106;2023-03-19T12:58:54;101626.52;;;17.38;36.94
77537;BME280;67783;51.656;16.106;2023-03-19T13:11:54;101624.71;;;17.28;36.95
77537;BME280;67783;51.656;16.106;2023-03-19T13:21:31;101625.64;;;17.38;37.79
77537;BME280;67783;51.656;16.106;2023-03-19T13:24:38;101619.09;;;17.40;38.65
77537;BME280;67783;51.656;16.106;2023-03-19T13:27:41;101625.83;;;17.46;38.32
77537;BME280;67783;51.656;16.106;2023-03-19T13:34:16;101630.87;;;17.50;38.65
77537;BME280;67783;51.656;16.106;2023-03-19T13:37:14;101625.09;;;17.44;38.46
77537;BME280;67783;51.656;16.106;2023-03-19T13:43:38;101627.97;;;17.42;38.70
77537;BME280;67783;51.656;16.106;2023-03-19T13:46:43;101621.33;;;17.35;38.37
77537;BME280;67783;51.656;16.106;2023-03-19T13:53:16;101609.19;;;17.30;38.46
77537;BME280;67783;51.656;16.106;2023-03-19T13:56:17;101614.47;;;17.31;37.85
77537;BME280;67783;51.656;16.106;2023-03-19T13:59:24;101613.63;;;17.31;36.56
77537;BME280;67783;51.656;16.106;2023-03-19T14:05:40;101610.17;;;17.29;38.12
77537;BME280;67783;51.656;16.106;2023-03-19T14:08:48;101604.88;;;17.27;36.67
77537;BME280;67783;51.656;16.106;2023-03-19T14:11:52;101606.20;;;17.33;38.68
77537;BME280;67783;51.656;16.106;2023-03-19T14:15:00;101603.96;;;17.38;38.15
77537;BME280;67783;51.656;16.106;2023-03-19T14:18:17;101615.52;;;17.40;37.14
77537;BME280;67783;51.656;16.106;2023-03-19T14:21:38;101619.55;;;17.45;38.70
77537;BME280;67783;51.656;16.106;2023-03-19T14:24:38;101613.85;;;17.48;38.71
77537;BME280;67783;51.656;16.106;2023-03-19T14:27:59;101609.17;;;17.50;38.16
77537;BME280;67783;51.656;16.106;2023-03-19T14:31:02;101604.83;;;17.59;38.97
77537;BME280;67783;51.656;16.106;2023-03-19T14:34:15;101611.55;;;17.65;38.81
77537;BME280;67783;51.656;16.106;2023-03-19T14:37:22;101611.55;;;17.65;38.46
77537;BME280;67783;51.656;16.106;2023-03-19T14:40:49;101612.41;;;17.65;37.64
77537;BME280;67783;51.656;16.106;2023-03-19T14:50:26;101610.56;;;17.45;38.45
77537;BME280;67783;51.656;16.106;2023-03-19T14:56:47;101608.64;;;17.36;38.92
77537;BME280;67783;51.656;16.106;2023-03-19T14:59:53;101608.80;;;17.34;37.91
77537;BME280;67783;51.656;16.106;2023-03-19T15:02:55;101601.10;;;17.39;39.05
77537;BME280;67783;51.656;16.106;2023-03-19T15:06:02;101609.11;;;17.41;38.90
77537;BME280;67783;51.656;16.106;2023-03-19T15:12:30;101602.77;;;17.51;39.05
77537;BME280;67783;51.656;16.106;2023-03-19T15:18:47;101572.81;;;17.32;39.14
77537;BME280;67783;51.656;16.106;2023-03-19T15:21:48;101603.29;;;17.45;38.94
77537;BME280;67783;51.656;16.106;2023-03-19T15:24:53;101601.10;;;17.39;38.03
77537;BME280;67783;51.656;16.106;2023-03-19T15:28:08;101602.98;;;17.39;39.20
77537;BME280;67783;51.656;16.106;2023-03-19T15:31:10;101605.93;;;17.36;39.25
77537;BME280;67783;51.656;16.106;2023-03-19T15:34:27;101591.20;;;17.29;38.62
77537;BME280;67783;51.656;16.106;2023-03-19T15:37:35;101597.80;;;17.36;39.51
77537;BME280;67783;51.656;16.106;2023-03-19T15:40:39;101599.65;;;17.35;39.47
77537;BME280;67783;51.656;16.106;2023-03-19T15:43:47;101603.61;;;17.31;38.70
77537;BME280;67783;51.656;16.106;2023-03-19T15:46:49;101600.20;;;17.29;39.52
77537;BME280;67783;51.656;16.106;2023-03-19T15:50:05;101600.71;;;17.23;39.23
77537;BME280;67783;51.656;16.106;2023-03-19T15:53:25;101600.99;;;17.20;38.71
77537;BME280;67783;51.656;16.106;2023-03-19T15:56:23;101604.09;;;17.16;39.62
77537;BME280;67783;51.656;16.106;2023-03-19T15:59:28;101605.73;;;17.07;39.60
77537;BME280;67783;51.656;16.106;2023-03-19T16:02:43;101599.40;;;16.97;39.12
77537;BME280;67783;51.656;16.106;2023-03-19T16:06:00;101599.65;;;16.94;39.89
77537;BME280;67783;51.656;16.106;2023-03-19T16:17:35;101604.81;;;16.65;40.38
77537;BME280;67783;51.656;16.106;2023-03-19T16:20:41;101611.82;;;16.56;40.66
77537;BME280;67783;51.656;16.106;2023-03-19T16:26:57;101616.91;;;16.50;40.89
77537;BME280;67783;51.656;16.106;2023-03-19T16:30:09;101615.71;;;16.43;41.25
77537;BME280;67783;51.656;16.106;2023-03-19T16:33:11;101610.55;;;16.40;41.15
77537;BME280;67783;51.656;16.106;2023-03-19T16:36:14;101611.16;;;16.32;41.74
77537;BME280;67783;51.656;16.106;2023-03-19T16:39:23;101611.04;;;16.34;41.60
77537;BME280;67783;51.656;16.106;2023-03-19T16:45:40;101617.10;;;16.26;41.88
77537;BME280;67783;51.656;16.106;2023-03-19T16:48:42;101623.97;;;16.30;41.75
77537;BME280;67783;51.656;16.106;2023-03-19T16:51:44;101627.40;;;16.32;41.92
77537;BME280;67783;51.656;16.106;2023-03-19T16:54:46;101598.04;;;16.16;41.80
77537;BME280;67783;51.656;16.106;2023-03-19T16:57:57;101624.45;;;16.35;41.85
77537;BME280;67783;51.656;16.106;2023-03-19T17:01:00;101624.69;;;16.32;42.13
77537;BME280;67783;51.656;16.106;2023-03-19T17:04:08;101628.26;;;16.33;41.99
77537;BME280;67783;51.656;16.106;2023-03-19T17:07:12;101633.07;;;16.29;42.16
77537;BME280;67783;51.656;16.106;2023-03-19T17:10:22;101628.89;;;16.25;42.74
77537;BME280;67783;51.656;16.106;2023-03-19T17:13:27;101637.02;;;16.25;42.21
77537;BME280;67783;51.656;16.106;2023-03-19T17:16:31;101642.68;;;16.22;42.34
77537;BME280;67783;51.656;16.106;2023-03-19T17:19:34;101644.63;;;16.20;42.27
77537;BME280;67783;51.656;16.106;2023-03-19T17:22:37;101644.13;;;16.15;42.41
77537;BME280;67783;51.656;16.106;2023-03-19T17:25:43;101641.84;;;16.10;43.19
77537;BME280;67783;51.656;16.106;2023-03-19T17:28:46;101646.62;;;16.07;42.61
77537;BME280;67783;51.656;16.106;2023-03-19T17:31:49;101645.13;;;16.03;42.91
77537;BME280;67783;51.656;16.106;2023-03-19T17:34:51;101652.53;;;16.01;42.85
77537;BME280;67783;51.656;16.106;2023-03-19T17:37:53;101656.47;;;15.97;43.08
77537;BME280;67783;51.656;16.106;2023-03-19T17:41:12;101651.42;;;15.92;43.95
77537;BME280;67783;51.656;16.106;2023-03-19T17:44:15;101646.38;;;15.88;43.20
77537;BME280;67783;51.656;16.106;2023-03-19T17:47:17;101648.59;;;15.83;43.57
77537;BME280;67783;51.656;16.106;2023-03-19T17:50:30;101653.52;;;15.78;44.92
77537;BME280;67783;51.656;16.106;2023-03-19T17:53:33;101651.04;;;15.75;43.81
77537;BME280;67783;51.656;16.106;2023-03-19T17:56:35;101658.65;;;15.69;44.30
77537;BME280;67783;51.656;16.106;2023-03-19T17:59:36;101658.91;;;15.66;43.98
77537;BME280;67783;51.656;16.106;2023-03-19T18:02:39;101655.82;;;15.60;44.32
77537;BME280;67783;51.656;16.106;2023-03-19T18:05:50;101653.73;;;15.52;45.71
77537;BME280;67783;51.656;16.106;2023-03-19T18:08:52;101670.92;;;15.51;44.47
77537;BME280;67783;51.656;16.106;2023-03-19T18:11:54;101657.84;;;15.45;45.09
77537;BME280;67783;51.656;16.106;2023-03-19T18:14:55;101663.38;;;15.44;44.68
77537;BME280;67783;51.656;16.106;2023-03-19T18:17:59;101665.59;;;15.39;45.17
77537;BME280;67783;51.656;16.106;2023-03-19T18:21:14;101662.50;;;15.32;46.91
77537;BME280;67783;51.656;16.106;2023-03-19T18:24:16;101662.71;;;15.29;45.34
77537;BME280;67783;51.656;16.106;2023-03-19T18:27:18;101665.91;;;15.23;46.01